Time;durP1;ratioP1;P1;durP2;ratioP2;P2;SDS_P1;SDS_P2;PMS_P1;PMS_P2;Temp;Humidity;BMP_temperature;BMP_pressure;BME280_temperature;BME280_humidity;BME280_pressure;Samples;Min_cycle;Max_cycle;Signal;HPM_P1;HPM_P2
2022/05/22 00:02:46;;;;;;;2.83;1.60;;;;;;;18.18;44.74;99727.22;7686229;32;37942;-76
2022/05/22 00:07:03;;;;;;;4.12;2.20;;;;;;;18.26;44.34;99731.09;7684834;32;36942;-76
2022/05/22 00:11:19;;;;;;;2.55;1.90;;;;;;;18.18;44.70;99732.72;7683409;32;40239;-76
2022/05/22 00:16:35;;;;;;;4.25;2.10;;;;;;;17.78;46.07;99730.88;7684551;32;40809;-76
2022/05/22 00:20:12;;;;;;;2.62;2.08;;;;;;;17.52;47.06;99735.50;7684422;32;37926;-76
2022/05/22 00:24:29;;;;;;;5.20;2.15;;;;;;;17.27;47.63;99727.63;7708644;32;36814;-76
2022/05/22 00:28:46;;;;;;;2.70;2.08;;;;;;;17.33;47.77;99722.78;7710261;32;39313;-76
2022/05/22 00:33:02;;;;;;;4.10;2.28;;;;;;;17.35;47.25;99723.28;7710828;32;39910;-77
2022/05/22 00:37:18;;;;;;;4.15;2.25;;;;;;;17.51;45.84;99720.91;7710748;32;37918;-76
2022/05/22 00:41:35;;;;;;;2.05;1.83;;;;;;;17.61;45.12;99717.84;7708158;32;36725;-76
2022/05/22 00:45:51;;;;;;;5.32;1.90;;;;;;;17.70;44.49;99728.09;7683652;32;39960;-76
2022/05/22 00:50:08;;;;;;;3.08;1.90;;;;;;;17.57;44.08;99730.62;7683774;32;40120;-76
2022/05/22 00:54:38;;;;;;;2.60;1.92;;;;;;;17.61;43.91;99715.09;7707376;32;37768;-76
2022/05/22 00:58:56;;;;;;;2.75;2.08;;;;;;;17.83;43.76;99716.94;7710416;32;36952;-76
2022/05/22 01:03:29;;;;;;;2.50;1.80;;;;;;;17.95;43.21;99721.00;7709156;32;39154;-77
2022/05/22 01:07:45;;;;;;;4.35;1.80;;;;;;;17.89;42.92;99708.53;7709174;32;40001;-76
2022/05/22 01:12:06;;;;;;;7.57;1.75;;;;;;;17.67;43.50;99720.47;7709891;32;37942;-76
2022/05/22 01:16:24;;;;;;;2.17;1.87;;;;;;;17.50;43.86;99715.72;7709986;32;37489;-76
2022/05/22 01:20:47;;;;;;;3.00;1.80;;;;;;;17.47;44.61;99717.16;7708651;32;40587;-76
2022/05/22 01:25:04;;;;;;;5.50;1.90;;;;;;;17.20;46.50;99719.00;7705234;32;40017;-76
2022/05/22 01:29:20;;;;;;;5.55;2.42;;;;;;;16.75;47.33;99726.50;7709548;32;37797;-76
2022/05/22 01:33:37;;;;;;;3.35;2.22;;;;;;;17.07;46.68;99712.50;7709423;32;37758;-76
2022/05/22 01:37:54;;;;;;;4.30;2.40;;;;;;;17.16;47.14;99717.19;7709381;32;39160;-76
2022/05/22 01:42:10;;;;;;;3.50;2.10;;;;;;;16.88;47.64;99718.22;7710914;32;39960;-76
2022/05/22 01:46:26;;;;;;;7.00;2.20;;;;;;;16.82;47.77;99729.66;7713054;32;37823;-76
2022/05/22 01:50:43;;;;;;;3.25;1.80;;;;;;;17.10;46.82;99722.03;7711170;32;37656;-76
2022/05/22 01:54:59;;;;;;;5.20;1.98;;;;;;;16.89;47.02;99722.59;7686106;32;39977;-76
2022/05/22 01:59:15;;;;;;;3.00;1.80;;;;;;;16.80;46.10;99729.97;7686170;32;40837;-76
2022/05/22 02:03:32;;;;;;;6.12;2.00;;;;;;;16.64;46.16;99739.72;7686101;32;37910;-76
2022/05/22 02:12:23;;;;;;;2.25;1.83;;;;;;;16.44;47.17;99739.12;7686129;32;39153;-76
2022/05/22 02:16:39;;;;;;;4.28;1.70;;;;;;;16.26;48.31;99742.84;7685985;32;40096;-76
2022/05/22 02:20:56;;;;;;;3.47;1.98;;;;;;;16.64;47.46;99740.56;7689003;32;37837;-76
2022/05/22 02:25:14;;;;;;;2.60;1.83;;;;;;;16.17;48.86;99739.22;7712560;32;36854;-76
2022/05/22 02:29:30;;;;;;;3.85;1.85;;;;;;;16.35;47.62;99738.25;7712534;32;39200;-76
2022/05/22 02:33:46;;;;;;;2.92;1.70;;;;;;;16.31;47.42;99745.47;7712341;32;40763;-76
2022/05/22 02:38:02;;;;;;;3.22;2.00;;;;;;;16.17;47.14;99740.03;7712314;32;37823;-76
2022/05/22 02:42:18;;;;;;;4.72;2.03;;;;;;;16.20;46.35;99755.09;7712496;32;37744;-76
2022/05/22 02:46:34;;;;;;;5.00;2.15;;;;;;;16.31;46.78;99748.22;7712366;32;39306;-76
2022/05/22 02:50:50;;;;;;;3.12;2.10;;;;;;;16.38;46.85;99751.34;7708824;32;39784;-76
2022/05/22 02:55:08;;;;;;;2.58;1.75;;;;;;;16.33;47.63;99744.06;7684952;32;37697;-76
2022/05/22 02:59:24;;;;;;;3.67;2.12;;;;;;;16.39;47.75;99746.69;7685134;32;36917;-77
2022/05/22 03:03:40;;;;;;;2.50;1.80;;;;;;;16.12;48.46;99749.19;7685466;32;39168;-76
2022/05/22 03:07:56;;;;;;;5.50;2.35;;;;;;;15.88;49.18;99745.91;7685461;32;40043;-76
2022/05/22 03:12:17;;;;;;;3.35;2.10;;;;;;;16.07;48.79;99754.00;7685197;32;38752;-76
2022/05/22 03:16:33;;;;;;;2.10;1.90;;;;;;;15.96;49.00;99750.66;7692030;32;37636;-76
2022/05/22 03:20:50;;;;;;;3.17;2.15;;;;;;;15.90;48.90;99746.41;7708624;32;39216;-76
2022/05/22 03:25:07;;;;;;;1.90;1.75;;;;;;;15.92;48.87;99755.16;7685233;32;40715;-76
2022/05/22 03:29:23;;;;;;;2.92;1.87;;;;;;;15.73;49.87;99764.31;7683976;32;39373;-76
2022/05/22 03:33:40;;;;;;;6.57;2.42;;;;;;;15.55;50.64;99768.78;7685084;32;37824;-76
2022/05/22 03:37:56;;;;;;;3.62;2.05;;;;;;;15.42;51.25;99764.13;7685092;32;40410;-76
2022/05/22 03:42:12;;;;;;;2.65;2.00;;;;;;;15.51;50.95;99756.00;7685026;32;39829;-76
2022/05/22 03:46:28;;;;;;;3.30;2.25;;;;;;;15.80;50.24;99757.59;7684927;32;37572;-76
2022/05/22 03:50:48;;;;;;;3.90;2.22;;;;;;;15.54;51.05;99761.69;7694872;32;36640;-76
2022/05/22 03:55:10;;;;;;;4.35;2.40;;;;;;;15.63;51.01;99758.22;7683676;32;39113;-76
2022/05/22 03:59:27;;;;;;;4.28;2.62;;;;;;;15.64;51.23;99766.13;7684961;32;40665;-76
2022/05/22 04:03:43;;;;;;;3.60;2.25;;;;;;;15.66;51.01;99771.34;7683799;32;37860;-76
2022/05/22 04:07:59;;;;;;;5.87;2.22;;;;;;;15.99;49.81;99771.22;7684755;32;37022;-77
2022/05/22 04:12:15;;;;;;;4.12;2.45;;;;;;;15.83;50.28;99773.50;7684643;32;39300;-76
2022/05/22 04:16:31;;;;;;;4.37;2.17;;;;;;;15.81;50.61;99775.75;7685284;32;40136;-76
2022/05/22 04:20:47;;;;;;;3.20;2.22;;;;;;;16.01;50.21;99775.31;7687494;32;38645;-76
2022/05/22 04:25:15;;;;;;;3.60;2.28;;;;;;;16.04;50.25;99784.84;7711116;32;37992;-76
2022/05/22 04:29:36;;;;;;;7.50;2.50;;;;;;;16.03;50.38;99780.50;7711303;32;39251;-76
2022/05/22 04:33:52;;;;;;;3.90;2.42;;;;;;;15.82;51.37;99780.13;7710921;32;40675;-76
2022/05/22 04:38:09;;;;;;;4.03;2.35;;;;;;;15.68;52.24;99769.12;7701956;32;37519;-76
2022/05/22 04:42:25;;;;;;;5.47;2.50;;;;;;;15.80;51.83;99768.59;7684136;32;36967;-76
2022/05/22 04:46:41;;;;;;;4.75;2.45;;;;;;;15.70;51.98;99764.94;7684103;32;39360;-76
2022/05/22 04:50:57;;;;;;;5.55;2.50;;;;;;;15.90;51.37;99763.72;7688149;32;40832;-76
2022/05/22 04:55:14;;;;;;;5.53;2.03;;;;;;;16.11;50.34;99763.28;7710271;32;37811;-76
2022/05/22 04:59:30;;;;;;;4.45;2.20;;;;;;;16.21;50.05;99759.47;7710410;32;36958;-76
2022/05/22 05:03:46;;;;;;;4.60;2.67;;;;;;;16.44;49.68;99760.31;7710275;32;40002;-76
2022/05/22 05:08:03;;;;;;;5.20;2.40;;;;;;;16.53;49.20;99745.47;7710131;32;41493;-76
2022/05/22 05:12:20;;;;;;;9.23;2.72;;;;;;;16.55;49.34;99744.38;7709968;32;38061;-76
2022/05/22 05:16:36;;;;;;;3.08;2.15;;;;;;;16.66;49.18;99754.81;7700732;32;36887;-76
2022/05/22 05:20:52;;;;;;;2.83;2.20;;;;;;;16.88;48.62;99753.19;7687376;32;39260;-76
2022/05/22 05:25:10;;;;;;;3.00;1.87;;;;;;;17.10;47.54;99752.34;7685366;32;40659;-76
2022/05/22 05:29:26;;;;;;;4.57;2.53;;;;;;;17.19;48.07;99742.16;7686424;32;38014;-76
2022/05/22 05:33:42;;;;;;;4.18;2.30;;;;;;;17.19;48.50;99747.69;7686401;32;37742;-77
2022/05/22 05:37:58;;;;;;;2.90;2.03;;;;;;;17.38;48.16;99754.91;7686382;32;39816;-76
2022/05/22 05:42:14;;;;;;;3.35;1.67;;;;;;;17.65;46.74;99753.84;7686368;32;39720;-76
2022/05/22 05:46:30;;;;;;;3.53;1.75;;;;;;;17.74;44.41;99751.13;7686364;32;38422;-77
2022/05/22 05:50:47;;;;;;;6.28;1.90;;;;;;;17.65;44.30;99751.91;7689813;32;34799;-76
2022/05/22 05:55:03;;;;;;;2.53;1.70;;;;;;;17.53;43.51;99751.72;7712899;32;39916;-84
2022/05/22 05:59:20;;;;;;;3.70;1.87;;;;;;;17.12;46.65;99752.03;7711729;32;39936;-77
2022/05/22 06:03:36;;;;;;;4.87;1.67;;;;;;;17.61;44.37;99745.41;7711404;32;37918;-78
2022/05/22 06:07:52;;;;;;;4.60;1.87;;;;;;;18.06;44.16;99741.63;7712757;32;36838;-78
2022/05/22 06:12:09;;;;;;;5.87;1.95;;;;;;;18.49;42.21;99732.56;7712681;32;39304;-81
2022/05/22 06:16:26;;;;;;;3.58;1.98;;;;;;;17.94;42.13;99745.03;7701304;32;39590;-81
2022/05/22 06:20:42;;;;;;;5.07;1.90;;;;;;;17.71;44.50;99740.72;7692867;32;38612;-80
2022/05/22 06:24:58;;;;;;;7.18;1.77;;;;;;;17.92;44.05;99736.28;7712569;32;37001;-80
2022/05/22 06:29:15;;;;;;;6.03;1.92;;;;;;;17.72;42.43;99734.09;7711250;32;39079;-77
2022/05/22 06:33:31;;;;;;;4.32;1.70;;;;;;;17.87;43.49;99733.66;7699928;32;40049;-76
2022/05/22 06:37:48;;;;;;;2.20;1.75;;;;;;;17.62;44.03;99744.25;7684563;32;38785;-77
2022/05/22 06:42:10;;;;;;;3.62;1.40;;;;;;;17.80;43.49;99738.81;7685773;32;37625;-76
2022/05/22 06:46:30;;;;;;;6.20;1.83;;;;;;;17.55;42.22;99741.16;7695582;32;38617;-77
2022/05/22 06:50:47;;;;;;;4.30;1.70;;;;;;;18.23;42.31;99727.06;7705385;32;39935;-78
2022/05/22 06:55:04;;;;;;;17.45;2.30;;;;;;;18.34;41.32;99736.59;7686658;32;38019;-77
2022/05/22 06:59:21;;;;;;;4.12;1.70;;;;;;;18.31;41.72;99739.22;7712149;32;36668;-78
2022/05/22 07:03:37;;;;;;;3.05;1.60;;;;;;;18.29;42.71;99730.44;7712157;32;38913;-78
2022/05/22 07:07:53;;;;;;;2.17;1.50;;;;;;;18.71;40.40;99727.97;7711947;32;39926;-79
2022/05/22 07:12:12;;;;;;;3.47;1.60;;;;;;;18.95;40.55;99727.44;7711269;32;38711;-77
2022/05/22 07:16:28;;;;;;;2.62;1.70;;;;;;;19.34;39.64;99722.75;7712122;32;36848;-78
2022/05/22 07:20:44;;;;;;;7.20;2.15;;;;;;;19.28;39.47;99707.50;7707713;32;39317;-78
2022/05/22 07:25:00;;;;;;;2.85;1.62;;;;;;;19.40;40.26;99715.09;7685256;32;39964;-78
2022/05/22 07:29:16;;;;;;;3.58;1.87;;;;;;;19.55;37.92;99717.28;7685036;32;37945;-78
2022/05/22 07:33:32;;;;;;;1.60;1.40;;;;;;;20.03;35.30;99723.53;7685052;32;38110;-77
2022/05/22 07:37:52;;;;;;;3.17;1.80;;;;;;;20.06;37.17;99714.56;7684895;32;40401;-77
2022/05/22 07:42:09;;;;;;;4.05;1.73;;;;;;;19.63;38.52;99718.37;7685880;32;40989;-78
2022/05/22 07:46:25;;;;;;;4.03;1.70;;;;;;;20.40;36.67;99705.16;7685011;32;37558;-78
2022/05/22 07:50:42;;;;;;;6.22;2.15;;;;;;;20.88;36.05;99702.88;7688324;32;37054;-78
2022/05/22 07:54:58;;;;;;;3.03;1.60;;;;;;;21.11;35.53;99692.19;7698441;32;39938;-77
2022/05/22 07:59:14;;;;;;;2.37;1.70;;;;;;;21.54;36.62;99681.69;7684767;32;39862;-77
2022/05/22 08:03:30;;;;;;;6.37;1.62;;;;;;;21.29;36.04;99670.59;7684606;32;38614;-78
2022/05/22 08:07:46;;;;;;;2.47;1.58;;;;;;;21.23;35.37;99671.97;7684722;32;37916;-78
2022/05/22 08:12:03;;;;;;;4.00;1.20;;;;;;;20.96;33.26;99674.25;7684647;32;39358;-79
2022/05/22 08:16:19;;;;;;;6.37;1.60;;;;;;;21.72;32.86;99666.41;7684749;32;39833;-77
2022/05/22 08:20:36;;;;;;;3.15;1.27;;;;;;;21.80;32.27;99661.06;7706951;32;38702;-77
2022/05/22 08:24:53;;;;;;;3.37;1.20;;;;;;;22.01;31.51;99672.81;7685693;32;36936;-77
2022/05/22 08:29:09;;;;;;;3.12;1.40;;;;;;;22.22;31.43;99669.84;7684299;32;39930;-77
2022/05/22 08:33:25;;;;;;;5.37;1.48;;;;;;;22.48;30.06;99663.84;7685217;32;39990;-78
2022/05/22 08:37:42;;;;;;;3.08;1.40;;;;;;;22.43;31.42;99658.56;7698034;32;38728;-78
2022/05/22 08:41:59;;;;;;;4.05;1.30;;;;;;;22.85;30.13;99654.47;7692514;32;36867;-77
2022/05/22 08:46:47;;;;;;;3.28;1.10;;;;;;;22.90;30.59;99656.19;7695732;32;38919;-77
2022/05/22 08:51:08;;;;;;;2.15;1.60;;;;;;;23.08;29.60;99656.66;7695925;32;39903;-77
2022/05/22 08:58:56;;;;;;;6.57;1.50;;;;;;;23.25;30.04;99643.22;7689062;32;38014;-79
2022/05/22 09:00:08;;;;;;;5.93;1.30;;;;;;;23.11;28.05;99636.47;7683889;32;37759;-87
2022/05/22 09:04:44;;;;;;;5.10;1.48;;;;;;;22.72;29.57;99631.53;7683660;32;39659;-87
2022/05/22 09:09:00;;;;;;;3.12;1.12;;;;;;;22.89;30.75;99630.38;7682125;32;40705;-76
2022/05/22 09:13:49;;;;;;;4.35;1.42;;;;;;;22.76;28.32;99612.97;7683183;32;38852;-77
2022/05/22 09:18:31;;;;;;;2.97;1.33;;;;;;;23.42;29.85;99616.16;7694299;32;37762;-77
2022/05/22 09:23:14;;;;;;;1.75;1.10;;;;;;;23.16;28.55;99608.41;7687462;32;39143;-77
2022/05/22 09:27:42;;;;;;;3.10;1.30;;;;;;;23.22;29.28;99613.34;7697806;32;40060;-78
2022/05/22 09:32:29;;;;;;;5.85;1.60;;;;;;;23.60;27.70;99606.22;7708812;32;37929;-77
2022/05/22 09:37:02;;;;;;;3.20;1.20;;;;;;;22.53;29.27;99609.22;7707788;32;37432;-78
2022/05/22 09:41:45;;;;;;;2.45;1.12;;;;;;;23.30;28.25;99608.75;7708973;32;39824;-78
2022/05/22 09:46:36;;;;;;;4.97;1.23;;;;;;;23.90;29.00;99602.91;7707526;32;40926;-78
2022/05/22 09:51:24;;;;;;;1.25;1.15;;;;;;;24.37;29.39;99601.84;7663803;32;37894;-78
2022/05/22 09:55:47;;;;;;;5.70;1.35;;;;;;;24.28;27.27;99606.03;7681763;32;38221;-78
2022/05/22 10:00:13;;;;;;;3.67;1.20;;;;;;;24.39;26.33;99595.91;7681844;32;39999;-79
2022/05/22 10:04:52;;;;;;;8.15;1.33;;;;;;;24.52;25.83;99593.75;7689412;32;40005;-79
2022/05/22 10:09:23;;;;;;;2.95;1.20;;;;;;;24.99;25.48;99572.25;7700786;32;38416;-78
2022/05/22 10:13:58;;;;;;;3.08;1.30;;;;;;;25.39;25.48;99588.41;7711061;32;37669;-78
2022/05/22 10:18:32;;;;;;;4.30;1.12;;;;;;;25.35;26.83;99568.03;7712176;32;39318;-78
2022/05/22 10:23:17;;;;;;;4.35;1.37;;;;;;;25.37;27.51;99571.25;7711771;32;39858;-79
2022/05/22 10:27:45;;;;;;;1.45;0.98;;;;;;;24.49;25.59;99561.88;7702467;32;38133;-77
2022/05/22 10:32:28;;;;;;;2.60;1.50;;;;;;;24.17;26.71;99564.06;7685357;32;37005;-78
2022/05/22 10:36:50;;;;;;;5.00;1.45;;;;;;;24.21;27.31;99559.34;7683473;32;39901;-78
2022/05/22 10:45:55;;;;;;;3.08;1.23;;;;;;;23.70;29.27;99570.62;7711658;32;37927;-79
2022/05/22 10:50:27;;;;;;;3.42;1.50;;;;;;;24.52;27.98;99568.66;7710065;32;37689;-83
2022/05/22 10:54:50;;;;;;;2.33;1.20;;;;;;;25.15;26.95;99563.72;7710501;32;39835;-83
2022/05/22 10:59:07;;;;;;;;;;;;;;;25.16;26.41;99568.13;7703715;32;39995;-82
2022/05/22 11:03:29;;;;;;;6.85;1.65;;;;;;;25.22;25.89;99558.25;7685147;32;38323;-82
2022/05/22 11:07:49;;;;;;;2.60;1.07;;;;;;;25.22;26.59;99564.63;7685153;32;37726;-82
2022/05/22 11:12:14;;;;;;;3.90;1.12;;;;;;;25.24;25.37;99562.25;7684887;32;38897;-83
2022/05/22 11:16:30;;;;;;;2.83;1.00;;;;;;;25.54;26.49;99553.13;7684907;32;39951;-83
2022/05/22 11:21:01;;;;;;;7.37;1.37;;;;;;;25.81;24.90;99544.69;7691904;32;38317;-83
2022/05/22 11:25:41;;;;;;;2.53;1.00;;;;;;;25.57;25.67;99540.41;7711545;32;37087;-84
2022/05/22 11:30:31;;;;;;;8.70;1.50;;;;;;;25.65;25.16;99537.31;7711331;32;40152;-83
2022/05/22 11:34:51;;;;;;;5.03;0.90;;;;;;;25.48;25.48;99533.12;7711138;32;39974;-83
2022/05/22 11:39:22;;;;;;;8.52;1.58;;;;;;;26.51;24.57;99523.47;7708425;32;37935;-83
2022/05/22 11:43:44;;;;;;;3.00;1.30;;;;;;;26.33;23.42;99523.31;7710174;32;37706;-84
2022/05/22 11:48:17;;;;;;;5.50;1.00;;;;;;;26.68;23.12;99518.44;7711181;32;39364;-83
2022/05/22 11:52:55;;;;;;;6.87;1.60;;;;;;;25.61;24.27;99518.91;7709623;32;39893;-83
2022/05/22 11:57:30;;;;;;;1.70;0.98;;;;;;;25.44;24.99;99492.41;7707603;32;37939;-83
2022/05/22 12:01:57;;;;;;;3.65;1.02;;;;;;;25.90;25.33;99497.72;7687859;32;37722;-84
2022/05/22 12:06:32;;;;;;;2.15;1.40;;;;;;;25.89;24.90;99484.13;7709928;32;39287;-83
2022/05/22 12:11:15;;;;;;;3.55;1.12;;;;;;;25.41;23.62;99491.19;7710792;32;40874;-83
2022/05/22 12:15:47;;;;;;;4.05;1.40;;;;;;;26.23;24.44;99479.31;7699338;32;38062;-84
2022/05/22 12:20:08;;;;;;;2.53;0.90;;;;;;;26.02;24.01;99472.34;7691035;32;37036;-84
2022/05/22 12:24:36;;;;;;;2.53;0.90;;;;;;;26.70;23.17;99483.31;7691446;32;39785;-84
2022/05/22 12:29:04;;;;;;;2.78;1.08;;;;;;;26.68;22.83;99479.31;7692822;32;41094;-84
2022/05/22 12:33:22;;;;;;;3.90;1.42;;;;;;;26.79;23.62;99471.81;7683598;32;38075;-84
2022/05/22 12:37:52;;;;;;;1.83;0.93;;;;;;;26.74;23.30;99469.38;7682973;32;36868;-83
2022/05/22 12:42:15;;;;;;;2.15;0.95;;;;;;;26.05;23.21;99470.78;7681963;32;38899;-83
2022/05/22 12:46:32;;;;;;;3.70;1.33;;;;;;;25.79;25.02;99475.28;7678605;32;39796;-85
2022/05/22 12:51:05;;;;;;;5.90;1.17;;;;;;;25.78;24.26;99462.50;7680122;32;38520;-83
2022/05/22 12:55:33;;;;;;;5.05;1.10;;;;;;;25.47;25.76;99469.31;7672592;32;269976;-82
2022/05/22 12:59:53;;;;;;;5.95;1.27;;;;;;;24.76;26.14;99469.16;7682576;32;40021;-83
2022/05/22 13:04:15;;;;;;;5.35;1.33;;;;;;;25.21;24.20;99461.81;7683389;32;40792;-84
2022/05/22 13:08:40;;;;;;;2.70;1.25;;;;;;;24.54;25.46;99452.09;7682932;32;38117;-84
2022/05/22 13:13:03;;;;;;;2.70;0.90;;;;;;;24.54;25.86;99452.09;7683108;32;36611;-84
2022/05/22 13:17:57;;;;;;;1.55;0.95;;;;;;;24.28;26.30;99450.84;7683213;32;40851;-82
2022/05/22 13:22:26;;;;;;;2.00;1.00;;;;;;;25.33;25.49;99442.06;7681906;32;39787;-84
2022/05/22 13:26:55;;;;;;;2.45;0.80;;;;;;;26.28;26.31;99436.25;7681576;32;38731;-84
2022/05/22 13:31:14;;;;;;;2.30;1.05;;;;;;;27.24;22.64;99407.28;7681762;32;36660;-84
2022/05/22 13:35:34;;;;;;;5.07;0.98;;;;;;;26.76;23.74;99417.44;7682570;32;40070;-83
2022/05/22 13:40:11;;;;;;;2.80;1.10;;;;;;;27.33;22.55;99418.94;7686294;32;39693;-84
2022/05/22 13:44:37;;;;;;;5.30;1.40;;;;;;;27.04;21.93;99412.41;7686032;32;38725;-84
2022/05/22 13:49:21;;;;;;;3.25;1.00;;;;;;;27.37;24.75;99416.16;7686170;32;37041;-84
2022/05/22 13:54:19;;;;;;;4.32;1.20;;;;;;;27.40;21.24;99409.78;7685864;32;39745;-83
2022/05/22 13:58:38;;;;;;;2.37;0.90;;;;;;;27.17;21.73;99406.06;7685988;32;40014;-84
2022/05/22 14:03:18;;;;;;;6.20;1.27;;;;;;;26.59;21.71;99406.94;7685054;32;38626;-85
2022/05/22 14:07:40;;;;;;;4.03;1.08;;;;;;;26.85;21.82;99403.09;7686200;32;36981;-85
2022/05/22 14:11:56;;;;;;;2.40;1.17;;;;;;;27.12;22.82;99400.84;7685820;32;40146;-84
2022/05/22 14:16:19;;;;;;;2.15;1.02;;;;;;;26.81;22.51;99402.31;7685636;32;40488;-84
2022/05/22 14:20:41;;;;;;;7.43;1.48;;;;;;;26.93;23.52;99393.56;7684532;32;38113;-83
2022/05/22 14:24:59;;;;;;;10.82;1.98;;;;;;;27.41;25.28;99389.00;7685610;32;36615;-84
2022/05/22 14:29:20;;;;;;;3.15;1.10;;;;;;;27.78;23.17;99385.84;7685585;32;39181;-84
2022/05/22 14:33:37;;;;;;;1.35;1.08;;;;;;;28.18;21.22;99371.88;7685483;32;40611;-84
2022/05/22 14:37:53;;;;;;;4.80;1.10;;;;;;;28.13;21.02;99369.47;7685394;32;37560;-85
2022/05/22 14:42:09;;;;;;;8.85;1.50;;;;;;;27.72;21.77;99354.63;7685207;32;36910;-84
2022/05/22 14:46:49;;;;;;;1.90;0.85;;;;;;;28.35;21.11;99351.44;7685447;32;39323;-83
2022/05/22 14:51:48;;;;;;;2.67;1.02;;;;;;;28.12;22.37;99357.47;7684775;32;39688;-83
2022/05/22 14:56:20;;;;;;;4.93;0.98;;;;;;;27.54;23.44;99356.59;7681713;32;38622;-84
2022/05/22 15:00:59;;;;;;;8.90;1.50;;;;;;;27.48;23.97;99366.63;7685092;32;37241;-83
2022/05/22 15:05:18;;;;;;;5.97;1.20;;;;;;;27.96;23.02;99360.69;7684126;32;40084;-84
2022/05/22 15:09:38;;;;;;;1.40;1.02;;;;;;;27.93;21.75;99361.47;7683860;32;39858;-83
2022/05/22 15:13:56;;;;;;;3.87;1.00;;;;;;;27.11;23.04;99373.25;7684860;32;38804;-84
2022/05/22 15:28:23;;;;;;;1.10;0.98;;;;;;;26.25;22.61;99373.59;7674340;32;40799;-84
2022/05/22 15:32:45;;;;;;;2.03;0.95;;;;;;;26.75;21.59;99361.91;7684893;32;37870;-84
2022/05/22 15:37:20;;;;;;;2.33;0.90;;;;;;;27.05;21.73;99364.47;7684755;32;37110;-84
2022/05/22 15:41:42;;;;;;;2.05;1.20;;;;;;;27.14;22.23;99367.66;7684803;32;39324;-84
2022/05/22 15:46:09;;;;;;;4.47;1.23;;;;;;;27.05;22.03;99358.84;7684971;32;39985;-84
2022/05/22 15:50:44;;;;;;;3.22;1.17;;;;;;;26.48;22.01;99353.78;7684654;32;36843;-83
2022/05/22 15:55:00;;;;;;;3.80;1.12;;;;;;;27.27;23.34;99353.31;7683532;32;37575;-83
2022/05/22 15:59:16;;;;;;;2.03;1.00;;;;;;;27.31;22.91;99349.38;7683470;32;39221;-84
2022/05/22 16:03:33;;;;;;;3.15;1.08;;;;;;;27.42;22.38;99349.38;7684463;32;40474;-83
2022/05/22 16:07:52;;;;;;;5.45;1.15;;;;;;;27.76;21.97;99337.84;7691966;32;38011;-82
2022/05/22 16:12:11;;;;;;;2.62;1.10;;;;;;;27.89;21.24;99339.03;7709627;32;36574;-87
2022/05/22 16:16:28;;;;;;;3.35;1.15;;;;;;;27.62;21.14;99335.03;7708110;32;39694;-87
2022/05/22 16:20:44;;;;;;;2.80;1.25;;;;;;;27.44;22.22;99341.41;7684948;32;39940;-88
2022/05/22 16:25:00;;;;;;;3.58;1.12;;;;;;;27.27;21.77;99344.91;7683682;32;37972;-84
2022/05/22 16:29:16;;;;;;;1.20;1.10;;;;;;;26.78;22.07;99350.75;7684055;32;37074;-87
2022/05/22 16:33:34;;;;;;;5.18;1.23;;;;;;;26.73;22.81;99342.75;7683986;32;39789;-85
2022/05/22 16:37:51;;;;;;;7.82;1.60;;;;;;;26.16;23.27;99354.34;7682643;32;39941;-86
2022/05/22 16:42:08;;;;;;;2.78;1.30;;;;;;;26.20;22.72;99349.59;7683625;32;37847;-86
2022/05/22 16:46:26;;;;;;;3.50;1.05;;;;;;;26.17;21.94;99355.97;7695651;32;37007;-85
2022/05/22 16:55:17;;;;;;;4.20;1.20;;;;;;;25.99;22.29;99353.03;7683320;32;39682;-85
2022/05/22 16:59:33;;;;;;;5.07;1.10;;;;;;;25.91;23.39;99347.75;7683315;32;38535;-85
2022/05/22 17:03:49;;;;;;;4.22;1.20;;;;;;;25.69;22.82;99364.31;7682177;32;36488;-86
2022/05/22 17:08:09;;;;;;;3.80;1.08;;;;;;;25.66;23.49;99359.47;7691174;32;40109;-85
2022/05/22 17:12:29;;;;;;;1.65;1.12;;;;;;;25.43;24.12;99363.25;7691751;32;39984;-86
2022/05/22 17:16:46;;;;;;;1.83;1.10;;;;;;;25.12;24.47;99370.84;7688428;32;37821;-86
2022/05/22 17:21:03;;;;;;;5.90;1.30;;;;;;;24.70;24.98;99371.13;7686313;32;36909;-87
2022/05/22 17:25:21;;;;;;;2.17;0.82;;;;;;;24.79;25.36;99368.84;7688367;32;39271;-84
2022/05/22 17:29:39;;;;;;;2.55;1.30;;;;;;;24.41;25.73;99372.69;7707246;32;40495;-83
2022/05/22 17:33:57;;;;;;;3.72;1.12;;;;;;;24.52;25.58;99376.41;7690931;32;38468;-82
2022/05/22 17:38:15;;;;;;;4.03;1.08;;;;;;;23.93;26.19;99373.91;7683320;32;35522;-82
2022/05/22 17:42:34;;;;;;;4.75;1.90;;;;;;;23.92;26.22;99366.75;7698674;32;40010;-81
2022/05/22 17:46:55;;;;;;;5.45;2.08;;;;;;;23.56;26.42;99366.09;7711151;32;41041;-83
2022/05/22 17:51:15;;;;;;;5.65;1.80;;;;;;;23.43;27.01;99370.22;7701150;32;39625;-81
2022/05/22 17:55:33;;;;;;;5.37;1.87;;;;;;;23.25;26.98;99373.47;7690322;32;36928;-81
2022/05/22 17:59:50;;;;;;;4.90;1.98;;;;;;;23.15;27.45;99376.84;7705156;32;38171;-80
2022/05/22 18:04:09;;;;;;;4.20;1.42;;;;;;;22.91;28.31;99377.09;7711821;32;39887;-81
2022/05/22 18:08:29;;;;;;;5.12;1.60;;;;;;;22.90;27.91;99381.03;7687502;32;37933;-81
2022/05/22 18:17:21;;;;;;;1.77;1.05;;;;;;;22.45;28.62;99386.81;7706352;32;38934;-82
2022/05/22 18:21:39;;;;;;;3.15;1.25;;;;;;;22.33;29.05;99384.16;7683290;32;39933;-81
2022/05/22 18:25:56;;;;;;;6.03;1.70;;;;;;;22.23;27.61;99381.91;7707050;32;37018;-82
2022/05/22 18:30:12;;;;;;;7.80;1.65;;;;;;;21.98;28.89;99384.09;7709359;32;37078;-80
2022/05/22 18:34:28;;;;;;;5.72;2.05;;;;;;;21.89;28.39;99387.03;7698350;32;40184;-81
2022/05/22 18:38:45;;;;;;;4.12;1.77;;;;;;;21.54;29.15;99393.25;7695412;32;39966;-80
2022/05/22 18:43:05;;;;;;;5.00;1.55;;;;;;;21.37;29.93;99388.81;7710764;32;37501;-80
2022/05/22 18:47:23;;;;;;;5.18;1.33;;;;;;;21.22;31.38;99389.59;7704734;32;37801;-81
2022/05/22 18:51:41;;;;;;;3.70;1.42;;;;;;;20.91;32.13;99391.09;7684259;32;40216;-81
2022/05/22 18:55:59;;;;;;;2.92;1.55;;;;;;;20.98;31.91;99400.41;7685679;32;40738;-80
2022/05/22 19:00:23;;;;;;;2.50;1.30;;;;;;;20.88;31.85;99406.44;7708866;32;38709;-80
2022/05/22 19:04:45;;;;;;;8.10;1.58;;;;;;;20.57;32.25;99409.81;7710988;32;36993;-79
2022/05/22 19:09:02;;;;;;;11.05;1.70;;;;;;;20.63;32.39;99417.56;7710987;32;39245;-80
2022/05/22 19:13:31;;;;;;;1.58;1.30;;;;;;;20.39;33.27;99423.91;7698952;32;40568;-81
2022/05/22 19:17:47;;;;;;;9.68;1.40;;;;;;;20.44;33.11;99420.09;7692017;32;38046;-80
2022/05/22 19:22:06;;;;;;;2.47;1.42;;;;;;;20.31;32.75;99426.78;7710258;32;36978;-80
2022/05/22 19:26:22;;;;;;;4.62;1.50;;;;;;;20.17;32.06;99422.41;7684181;32;40316;-80
2022/05/22 19:30:39;;;;;;;3.97;1.20;;;;;;;20.18;31.83;99434.25;7683744;32;40020;-81
2022/05/22 19:34:55;;;;;;;3.85;1.30;;;;;;;20.15;31.31;99434.97;7683602;32;38742;-81
2022/05/22 19:39:11;;;;;;;6.35;1.70;;;;;;;20.14;31.14;99434.16;7702664;32;36727;-82
2022/05/22 19:48:13;;;;;;;1.52;1.15;;;;;;;19.91;33.23;99452.34;7700150;32;40152;-81
2022/05/22 19:52:29;;;;;;;3.12;1.67;;;;;;;19.88;33.77;99454.63;7710429;32;37735;-83
2022/05/22 20:01:20;;;;;;;2.22;1.62;;;;;;;19.48;34.66;99466.22;7710557;32;39244;-82
2022/05/22 20:05:45;;;;;;;4.55;2.30;;;;;;;19.53;34.79;99470.75;7710553;32;39513;-82
2022/05/22 20:10:02;;;;;;;4.72;2.35;;;;;;;19.40;35.05;99461.59;7710216;32;37899;-83
2022/05/22 20:14:18;;;;;;;4.50;2.40;;;;;;;19.17;35.34;99463.91;7710100;32;37641;-82
2022/05/22 20:18:35;;;;;;;7.43;2.10;;;;;;;19.00;36.05;99467.59;7695303;32;38900;-82
2022/05/22 20:22:51;;;;;;;7.72;2.35;;;;;;;19.00;36.66;99466.81;7683411;32;40545;-82
2022/05/22 20:27:08;;;;;;;4.82;2.17;;;;;;;18.92;36.86;99466.53;7683656;32;37707;-75
2022/05/22 20:31:25;;;;;;;6.65;2.92;;;;;;;18.77;37.65;99461.56;7684339;32;36917;-81
2022/05/22 20:35:41;;;;;;;5.93;2.53;;;;;;;18.95;37.39;99463.09;7683575;32;38885;-80
2022/05/22 20:39:57;;;;;;;11.27;2.65;;;;;;;18.54;38.42;99464.62;7683037;32;39970;-81
2022/05/22 20:44:46;;;;;;;9.82;3.62;;;;;;;18.10;40.09;99465.97;7683466;32;37641;-81
2022/05/22 20:49:03;;;;;;;7.43;3.60;;;;;;;17.86;40.56;99475.59;7700371;32;36597;-81
2022/05/22 20:53:21;;;;;;;14.75;8.85;;;;;;;17.97;40.78;99465.84;7710324;32;38979;-81
2022/05/22 20:57:37;;;;;;;17.58;8.55;;;;;;;17.88;41.04;99467.78;7710160;32;40245;-81
2022/05/22 21:02:00;;;;;;;10.02;4.80;;;;;;;18.18;40.52;99467.87;7708017;32;38400;-81
2022/05/22 21:06:17;;;;;;;7.82;2.50;;;;;;;18.11;40.81;99464.78;7708674;32;37904;-81
2022/05/22 21:10:33;;;;;;;3.62;2.12;;;;;;;17.97;40.54;99449.28;7709696;32;39522;-80